Terminal Aerodrome Forecast
Issued by NWS

Home | Current Version | Previous Version | Graphics & Text | Print | Product List | Glossary On
Versions: 1 2 3 4 5 6 7 8 9 10 11 12 13 14 15 16
000
FTUS43 KMPX 311100
TAFRWF
TAF
KRWF 311130Z 3112/0112 14010KT P6SM VCSH SCT050 BKN090
     FM311300 16012KT P6SM SCT050 BKN150
     FM311600 17017G24KT P6SM SCT050
     FM312100 20010KT P6SM SCT050 BKN080
     FM010000 23009KT P6SM VCTS SCT040 BKN070CB
     FM010400 28006KT P6SM SCT050 BKN100=

USA.gov is the U.S. government's official web portal to all federal, state and local government web resources and services.